createdAt,value
2023-03-18T00:00:13.326Z,10.02
2023-03-18T00:02:42.184Z,9.99
2023-03-18T00:05:11.471Z,10.00
2023-03-18T00:07:38.923Z,9.92
2023-03-18T00:10:10.017Z,9.85
2023-03-18T00:12:39.821Z,9.90
2023-03-18T00:15:16.134Z,9.94
2023-03-18T00:17:43.350Z,9.87
2023-03-18T00:20:13.459Z,9.88
2023-03-18T00:22:41.631Z,9.84
2023-03-18T00:25:12.693Z,9.78
2023-03-18T00:27:41.019Z,9.75
2023-03-18T00:30:09.142Z,9.66
2023-03-18T00:32:36.091Z,9.69
2023-03-18T00:35:03.755Z,9.77
2023-03-18T00:37:31.291Z,9.83
2023-03-18T00:40:05.179Z,9.87
2023-03-18T00:42:47.379Z,9.82
2023-03-18T00:45:17.267Z,9.79
2023-03-18T00:47:44.521Z,9.74
2023-03-18T00:50:12.407Z,9.64
2023-03-18T00:52:39.555Z,9.59
2023-03-18T00:55:08.455Z,9.65
2023-03-18T00:57:35.513Z,9.65
2023-03-18T01:00:05.284Z,9.62
2023-03-18T01:02:32.112Z,9.57
2023-03-18T01:04:59.232Z,9.61
2023-03-18T01:07:26.235Z,9.56
2023-03-18T01:09:53.023Z,9.58
2023-03-18T01:12:19.868Z,9.59
2023-03-18T01:14:48.121Z,9.54
2023-03-18T01:17:15.437Z,9.53
2023-03-18T01:19:43.443Z,9.59
2023-03-18T01:22:10.600Z,9.57
2023-03-18T01:24:37.316Z,9.51
2023-03-18T01:27:06.183Z,9.48
2023-03-18T01:29:34.189Z,9.47
2023-03-18T01:32:02.874Z,9.51
2023-03-18T01:34:30.821Z,9.59
2023-03-18T01:36:58.703Z,9.53
2023-03-18T01:39:25.708Z,9.51
2023-03-18T01:41:52.676Z,9.51
2023-03-18T01:44:25.503Z,9.44
2023-03-18T01:46:53.498Z,9.34
2023-03-18T01:49:43.499Z,9.31
2023-03-18T01:52:18.116Z,9.28
2023-03-18T01:55:07.052Z,9.09
2023-03-18T01:57:34.879Z,8.97
2023-03-18T02:00:04.438Z,8.99
2023-03-18T02:02:33.917Z,9.00
2023-03-18T02:05:06.485Z,9.04
2023-03-18T02:07:35.553Z,9.09
2023-03-18T02:10:10.962Z,9.10
2023-03-18T02:12:43.900Z,9.14
2023-03-18T02:15:15.006Z,9.13
2023-03-18T02:17:57.682Z,9.15
2023-03-18T02:20:52.255Z,9.15
2023-03-18T02:23:56.738Z,9.13
2023-03-18T02:26:35.412Z,9.11
2023-03-18T02:29:06.624Z,9.03
2023-03-18T02:31:36.973Z,8.92
2023-03-18T02:34:07.723Z,8.91
2023-03-18T02:36:36.588Z,8.92
2023-03-18T02:39:04.676Z,8.97
2023-03-18T02:41:35.672Z,9.01
2023-03-18T02:44:03.308Z,9.03
2023-03-18T02:46:41.413Z,8.90
2023-03-18T02:49:09.265Z,8.76
2023-03-18T02:51:37.746Z,8.61
2023-03-18T02:54:12.228Z,8.54
2023-03-18T02:56:41.573Z,8.60
2023-03-18T02:59:10.162Z,8.63
2023-03-18T03:01:38.948Z,8.59
2023-03-18T03:04:06.912Z,8.52
2023-03-18T03:06:34.990Z,8.51
2023-03-18T03:09:03.882Z,8.48
2023-03-18T03:11:31.103Z,8.45
2023-03-18T03:13:57.964Z,8.43
2023-03-18T03:16:25.203Z,8.52
2023-03-18T03:18:52.078Z,8.59
2023-03-18T03:21:18.953Z,8.64
2023-03-18T03:23:47.733Z,8.67
2023-03-18T03:26:16.135Z,8.62
2023-03-18T03:28:43.482Z,8.62
2023-03-18T03:31:10.728Z,8.60
2023-03-18T03:33:43.541Z,8.54
2023-03-18T03:36:15.419Z,8.42
2023-03-18T03:38:43.430Z,8.40
2023-03-18T03:41:12.887Z,8.33
2023-03-18T03:43:41.443Z,8.30
2023-03-18T03:46:10.349Z,8.27
2023-03-18T03:48:39.383Z,8.25
2023-03-18T03:51:07.418Z,8.28
2023-03-18T03:53:35.922Z,8.30
2023-03-18T03:56:04.379Z,8.29
2023-03-18T03:58:31.417Z,8.36
2023-03-18T04:00:58.537Z,8.42
2023-03-18T04:03:25.819Z,8.42
2023-03-18T04:05:53.062Z,8.43
2023-03-18T04:08:20.654Z,8.36
2023-03-18T04:10:47.619Z,8.31
2023-03-18T04:13:14.520Z,8.33
2023-03-18T04:15:42.239Z,8.31
2023-03-18T04:18:09.282Z,8.27
2023-03-18T04:20:38.653Z,8.30
2023-03-18T04:23:07.288Z,8.25
2023-03-18T04:25:35.295Z,8.21
2023-03-18T04:28:03.471Z,8.16
2023-03-18T04:30:30.791Z,8.13
2023-03-18T04:32:59.497Z,8.00
2023-03-18T04:35:27.137Z,7.97
2023-03-18T04:37:54.609Z,7.93
2023-03-18T04:40:21.768Z,7.96
2023-03-18T04:42:48.777Z,7.81
2023-03-18T04:45:17.607Z,7.72
2023-03-18T04:47:45.420Z,7.73
2023-03-18T04:50:14.714Z,7.71
2023-03-18T04:52:42.726Z,7.60
2023-03-18T04:55:11.435Z,7.59
2023-03-18T04:57:38.720Z,7.51
2023-03-18T05:00:17.230Z,7.48
2023-03-18T05:02:44.476Z,7.54
2023-03-18T05:05:11.476Z,7.59
2023-03-18T05:07:38.948Z,7.61
2023-03-18T05:10:07.165Z,7.65
2023-03-18T05:12:35.497Z,7.64
2023-03-18T05:15:03.189Z,7.53
2023-03-18T05:17:30.144Z,7.44
2023-03-18T05:19:57.311Z,7.39
2023-03-18T05:22:25.253Z,7.34
2023-03-18T05:24:52.219Z,7.27
2023-03-18T05:27:20.128Z,7.40
2023-03-18T05:29:48.712Z,7.44
2023-03-18T05:32:16.664Z,7.41
2023-03-18T05:34:43.616Z,7.41
2023-03-18T05:37:14.215Z,7.39
2023-03-18T05:39:44.793Z,7.43
2023-03-18T05:42:12.537Z,7.44
2023-03-18T05:44:40.291Z,7.41
2023-03-18T05:47:08.504Z,7.37
2023-03-18T05:49:36.096Z,7.44
2023-03-18T05:52:03.531Z,7.43
2023-03-18T05:54:31.203Z,7.40
2023-03-18T05:56:58.366Z,7.35
2023-03-18T05:59:25.601Z,7.29
2023-03-18T06:01:53.886Z,7.29
2023-03-18T06:04:20.890Z,7.22
2023-03-18T06:06:49.620Z,7.21
2023-03-18T06:09:17.493Z,7.26
2023-03-18T06:11:45.572Z,7.25
2023-03-18T06:14:12.763Z,7.19
2023-03-18T06:16:41.594Z,7.26
2023-03-18T06:19:10.760Z,7.30
2023-03-18T06:21:39.365Z,7.21
2023-03-18T06:24:08.194Z,7.21
2023-03-18T06:26:35.416Z,7.32
2023-03-18T06:29:03.676Z,7.32
2023-03-18T06:31:31.156Z,7.36
2023-03-18T06:33:59.743Z,7.42
2023-03-18T06:36:27.950Z,7.51
2023-03-18T06:38:55.897Z,7.53
2023-03-18T06:41:22.979Z,7.58
2023-03-18T06:43:50.692Z,7.61
2023-03-18T06:46:18.591Z,7.67
2023-03-18T06:48:46.404Z,7.73
2023-03-18T06:51:13.436Z,7.78
2023-03-18T06:53:44.669Z,7.84
2023-03-18T06:56:13.309Z,7.89
2023-03-18T06:58:40.805Z,7.89
2023-03-18T07:01:08.320Z,7.99
2023-03-18T07:03:35.777Z,8.07
2023-03-18T07:06:04.288Z,8.17
2023-03-18T07:08:31.489Z,8.21
2023-03-18T07:10:58.646Z,8.26
2023-03-18T07:13:28.770Z,8.34
2023-03-18T07:15:56.714Z,8.40
2023-03-18T07:18:24.289Z,8.46
2023-03-18T07:20:51.137Z,8.48
2023-03-18T07:23:18.451Z,8.55
2023-03-18T07:25:45.276Z,8.62
2023-03-18T07:28:12.478Z,8.71
2023-03-18T07:30:39.644Z,8.75
2023-03-18T07:33:06.656Z,8.77
2023-03-18T07:35:33.790Z,8.82
2023-03-18T07:38:01.034Z,8.85
2023-03-18T07:40:28.003Z,8.98
2023-03-18T07:42:54.746Z,9.05
2023-03-18T07:45:21.790Z,9.12
2023-03-18T07:47:48.869Z,9.20
2023-03-18T07:50:16.130Z,9.25
2023-03-18T07:52:43.348Z,9.31
2023-03-18T07:55:11.864Z,9.36
2023-03-18T07:57:39.958Z,9.45
2023-03-18T08:00:11.329Z,9.60
2023-03-18T08:02:38.675Z,9.67
2023-03-18T08:05:09.362Z,9.78
2023-03-18T08:07:36.974Z,9.93
2023-03-18T08:10:04.837Z,9.99
2023-03-18T08:12:45.318Z,10.06
2023-03-18T08:15:18.205Z,10.18
2023-03-18T08:17:45.014Z,10.30
2023-03-18T08:20:12.599Z,10.59
2023-03-18T08:22:39.841Z,10.86
2023-03-18T08:25:07.533Z,11.17
2023-03-18T08:27:34.488Z,11.53
2023-03-18T08:30:03.668Z,11.77
2023-03-18T08:32:31.015Z,11.90
2023-03-18T08:34:57.900Z,12.10
2023-03-18T08:37:24.814Z,12.37
2023-03-18T08:39:51.823Z,12.58
2023-03-18T08:42:19.159Z,12.77
2023-03-18T08:44:46.035Z,13.09
2023-03-18T08:47:13.331Z,13.28
2023-03-18T08:49:40.155Z,13.49
2023-03-18T08:52:08.327Z,13.77
2023-03-18T08:54:35.164Z,14.06
2023-03-18T08:57:02.585Z,14.39
2023-03-18T08:59:29.547Z,14.66
2023-03-18T09:01:56.421Z,14.90
2023-03-18T09:04:25.469Z,14.92
2023-03-18T09:06:52.317Z,15.23
2023-03-18T09:09:19.455Z,15.32
2023-03-18T09:11:47.766Z,15.53
2023-03-18T09:14:14.919Z,15.86
2023-03-18T09:16:41.741Z,16.08
2023-03-18T09:19:08.686Z,16.31
2023-03-18T09:21:35.950Z,16.56
2023-03-18T09:24:04.617Z,16.75
2023-03-18T09:26:32.848Z,16.77
2023-03-18T09:28:59.735Z,16.76
2023-03-18T09:31:26.998Z,16.85
2023-03-18T09:33:53.904Z,16.97
2023-03-18T09:36:20.749Z,17.15
2023-03-18T09:38:47.585Z,17.30
2023-03-18T09:41:32.782Z,17.33
2023-03-18T09:44:34.319Z,17.09
2023-03-18T09:47:23.724Z,16.73
2023-03-18T09:50:27.605Z,16.76
2023-03-18T09:53:16.598Z,16.93
2023-03-18T09:55:52.384Z,17.31
2023-03-18T09:58:59.764Z,17.54
2023-03-18T10:01:29.062Z,17.79
2023-03-18T10:04:28.682Z,18.17
2023-03-18T10:07:06.080Z,18.38
2023-03-18T10:09:59.364Z,18.63
2023-03-18T10:12:37.964Z,18.79
2023-03-18T10:15:18.742Z,18.62
2023-03-18T10:17:59.919Z,18.50
2023-03-18T10:20:39.183Z,18.35
2023-03-18T10:23:45.046Z,18.21
2023-03-18T10:26:47.118Z,18.45
2023-03-18T10:29:34.026Z,18.37
2023-03-18T10:32:23.354Z,18.29
2023-03-18T10:35:21.237Z,18.55
2023-03-18T10:38:12.733Z,19.07
2023-03-18T10:40:43.414Z,19.42
2023-03-18T10:43:25.282Z,19.70
2023-03-18T10:46:03.527Z,19.91
2023-03-18T10:48:53.006Z,20.17
2023-03-18T10:51:48.574Z,20.20
2023-03-18T10:54:38.632Z,20.21
2023-03-18T10:57:05.530Z,20.39
2023-03-18T10:59:35.263Z,20.69
2023-03-18T11:02:13.011Z,20.72
2023-03-18T11:04:51.965Z,20.89
2023-03-18T11:07:26.906Z,21.08
2023-03-18T11:09:54.784Z,21.19
2023-03-18T11:12:28.798Z,21.01
2023-03-18T11:14:56.356Z,20.48
2023-03-18T11:17:27.978Z,20.16
2023-03-18T11:20:16.937Z,19.79
2023-03-18T11:22:51.960Z,19.60
2023-03-18T11:25:25.686Z,20.40
2023-03-18T11:28:02.835Z,21.43
2023-03-18T11:30:44.199Z,22.11
2023-03-18T11:33:11.739Z,22.61
2023-03-18T11:35:52.331Z,23.07
2023-03-18T11:38:32.862Z,23.45
2023-03-18T11:41:37.993Z,23.94
2023-03-18T11:44:18.413Z,23.90
2023-03-18T11:46:59.684Z,24.37
2023-03-18T11:49:29.361Z,25.07
2023-03-18T11:52:26.824Z,25.28
2023-03-18T11:55:16.098Z,25.44
2023-03-18T11:58:32.692Z,25.59
2023-03-18T12:01:35.720Z,25.95
2023-03-18T12:04:21.933Z,26.30
2023-03-18T12:07:19.244Z,26.06
2023-03-18T12:10:04.346Z,26.19
2023-03-18T12:12:59.757Z,26.57
2023-03-18T12:15:47.832Z,26.90
2023-03-18T12:18:37.157Z,26.98
2023-03-18T12:21:58.362Z,26.70
2023-03-18T12:24:48.629Z,27.11
2023-03-18T12:27:39.255Z,26.03
2023-03-18T12:30:25.077Z,25.69
2023-03-18T12:33:04.105Z,26.21
2023-03-18T12:35:53.603Z,25.99
2023-03-18T12:39:05.920Z,26.81
2023-03-18T12:42:03.048Z,26.61
2023-03-18T12:44:58.461Z,26.25
2023-03-18T12:48:05.178Z,26.08
2023-03-18T12:51:01.107Z,26.66
2023-03-18T12:53:36.705Z,26.91
2023-03-18T12:56:21.008Z,26.89
2023-03-18T12:59:02.475Z,25.55
2023-03-18T13:01:42.458Z,25.24
2023-03-18T13:04:30.463Z,25.16
2023-03-18T13:07:18.537Z,24.18
2023-03-18T13:09:59.471Z,23.64
2023-03-18T13:12:41.600Z,23.56
2023-03-18T13:15:18.306Z,23.70
2023-03-18T13:17:49.309Z,23.38
2023-03-18T13:20:47.710Z,23.94
2023-03-18T13:24:00.974Z,25.02
2023-03-18T13:26:54.642Z,25.52
2023-03-18T13:29:47.162Z,26.03
2023-03-18T13:32:34.454Z,26.36
2023-03-18T13:35:51.576Z,25.69
2023-03-18T13:38:41.340Z,25.56
2023-03-18T13:41:25.416Z,24.82
2023-03-18T13:43:56.601Z,23.51
2023-03-18T13:46:28.882Z,23.32
2023-03-18T13:49:00.400Z,23.23
2023-03-18T13:51:28.727Z,23.04
2023-03-18T13:54:02.101Z,22.77
2023-03-18T13:56:32.923Z,22.13
2023-03-18T13:59:07.537Z,21.57
2023-03-18T14:01:48.450Z,21.31
2023-03-18T14:04:32.053Z,21.15
2023-03-18T14:07:20.938Z,20.95
2023-03-18T14:10:18.388Z,20.68
2023-03-18T14:12:48.286Z,20.46
2023-03-18T14:15:15.757Z,20.39
2023-03-18T14:17:58.158Z,20.30
2023-03-18T14:20:38.729Z,20.35
2023-03-18T14:23:24.294Z,20.41
2023-03-18T14:26:02.684Z,20.55
2023-03-18T14:28:40.564Z,20.67
2023-03-18T14:31:30.259Z,20.65
2023-03-18T14:34:23.334Z,20.41
2023-03-18T14:36:53.086Z,20.22
2023-03-18T14:39:34.327Z,20.03
2023-03-18T14:42:11.108Z,19.99
2023-03-18T14:44:52.621Z,19.86
2023-03-18T14:47:38.210Z,19.82
2023-03-18T14:50:29.508Z,19.68
2023-03-18T14:53:27.006Z,19.55
2023-03-18T14:55:57.201Z,19.47
2023-03-18T14:58:26.358Z,19.45
2023-03-18T15:01:05.818Z,19.57
2023-03-18T15:03:42.434Z,19.56
2023-03-18T15:06:22.980Z,19.47
2023-03-18T15:08:58.662Z,19.40
2023-03-18T15:11:26.106Z,19.31
2023-03-18T15:14:00.127Z,19.32
2023-03-18T15:16:32.847Z,19.30
2023-03-18T15:19:00.153Z,19.16
2023-03-18T15:21:32.435Z,19.03
2023-03-18T15:24:07.605Z,18.91
2023-03-18T15:26:39.093Z,18.82
2023-03-18T15:29:28.156Z,18.78
2023-03-18T15:32:14.895Z,18.74
2023-03-18T15:34:45.045Z,18.70
2023-03-18T15:37:40.548Z,18.64
2023-03-18T15:40:28.931Z,18.66
2023-03-18T15:43:27.194Z,18.65
2023-03-18T15:45:58.844Z,18.61
2023-03-18T15:48:54.084Z,18.49
2023-03-18T15:51:44.893Z,18.39
2023-03-18T15:54:28.425Z,18.39
2023-03-18T15:56:58.300Z,18.41
2023-03-18T15:59:31.094Z,18.40
2023-03-18T16:01:59.875Z,18.36
2023-03-18T16:04:32.987Z,18.33
2023-03-18T16:06:59.802Z,18.29
2023-03-18T16:09:26.994Z,18.24
2023-03-18T16:12:00.587Z,18.20
2023-03-18T16:14:43.015Z,18.15
2023-03-18T16:17:21.496Z,18.10
2023-03-18T16:19:53.667Z,18.03
2023-03-18T16:22:20.560Z,17.95
2023-03-18T16:24:47.764Z,17.98
2023-03-18T16:27:39.649Z,17.90
2023-03-18T16:30:17.755Z,17.82
2023-03-18T16:32:45.979Z,17.75
2023-03-18T16:35:19.247Z,17.71
2023-03-18T16:37:48.420Z,17.69
2023-03-18T16:40:24.459Z,17.68
2023-03-18T16:42:52.645Z,17.64
2023-03-18T16:45:33.148Z,17.63
2023-03-18T16:48:06.693Z,17.58
2023-03-18T16:50:37.499Z,17.48
2023-03-18T16:53:27.078Z,17.39
2023-03-18T16:56:18.904Z,17.40
2023-03-18T16:58:45.749Z,17.31
2023-03-18T17:01:16.472Z,17.21
2023-03-18T17:03:44.251Z,17.19
2023-03-18T17:06:12.550Z,17.05
2023-03-18T17:08:40.082Z,16.95
2023-03-18T17:11:07.494Z,16.83
2023-03-18T17:13:38.035Z,16.75
2023-03-18T17:16:05.398Z,16.66
2023-03-18T17:18:33.197Z,16.52
2023-03-18T17:21:03.544Z,16.37
2023-03-18T17:23:30.494Z,16.32
2023-03-18T17:26:00.547Z,16.35
2023-03-18T17:28:43.089Z,16.36
2023-03-18T17:31:13.449Z,16.28
2023-03-18T17:33:41.103Z,16.18
2023-03-18T17:36:09.146Z,16.13
2023-03-18T17:38:36.606Z,16.02
2023-03-18T17:41:16.378Z,15.95
2023-03-18T17:43:44.001Z,15.77
2023-03-18T17:46:11.173Z,15.64
2023-03-18T17:48:39.537Z,15.53
2023-03-18T17:51:19.846Z,15.40
2023-03-18T17:53:49.913Z,15.28
2023-03-18T17:56:19.141Z,15.18
2023-03-18T17:58:51.862Z,15.16
2023-03-18T18:01:27.043Z,15.19
2023-03-18T18:03:59.544Z,15.16
2023-03-18T18:06:29.308Z,15.08
2023-03-18T18:09:01.130Z,14.91
2023-03-18T18:11:39.600Z,14.84
2023-03-18T18:14:39.796Z,14.78
2023-03-18T18:17:14.291Z,14.72
2023-03-18T18:19:41.569Z,14.45
2023-03-18T18:22:21.896Z,14.31
2023-03-18T18:24:50.284Z,14.27
2023-03-18T18:27:17.218Z,14.21
2023-03-18T18:29:47.071Z,14.34
2023-03-18T18:32:15.634Z,14.31
2023-03-18T18:34:42.607Z,14.26
2023-03-18T18:37:09.965Z,14.12
2023-03-18T18:39:36.719Z,14.06
2023-03-18T18:42:04.266Z,13.98
2023-03-18T18:44:31.719Z,13.85
2023-03-18T18:46:59.369Z,13.72
2023-03-18T18:49:26.452Z,13.73
2023-03-18T18:51:55.846Z,13.60
2023-03-18T18:54:24.606Z,13.56
2023-03-18T18:56:52.180Z,13.49
2023-03-18T18:59:28.847Z,13.51
2023-03-18T19:01:56.884Z,13.51
2023-03-18T19:04:25.214Z,13.42
2023-03-18T19:06:53.753Z,13.30
2023-03-18T19:09:25.280Z,13.15
2023-03-18T19:11:55.996Z,13.08
2023-03-18T19:14:26.390Z,13.19
2023-03-18T19:16:58.499Z,13.18
2023-03-18T19:19:32.216Z,13.09
2023-03-18T19:21:59.133Z,13.14
2023-03-18T19:24:37.032Z,13.06
2023-03-18T19:27:15.483Z,12.91
2023-03-18T19:29:42.732Z,12.85
2023-03-18T19:32:19.278Z,12.89
2023-03-18T19:34:48.163Z,12.75
2023-03-18T19:37:27.112Z,12.64
2023-03-18T19:39:56.266Z,12.52
2023-03-18T19:42:23.543Z,12.45
2023-03-18T19:44:50.442Z,12.42
2023-03-18T19:47:28.039Z,12.41
2023-03-18T19:49:55.317Z,12.31
2023-03-18T19:52:27.037Z,12.25
2023-03-18T19:54:55.260Z,12.30
2023-03-18T19:57:32.462Z,12.25
2023-03-18T20:00:04.833Z,12.23
2023-03-18T20:02:34.256Z,12.23
2023-03-18T20:05:14.380Z,12.12
2023-03-18T20:07:41.340Z,12.10
2023-03-18T20:10:11.761Z,12.06
2023-03-18T20:12:43.247Z,12.14
2023-03-18T20:15:23.304Z,12.19
2023-03-18T20:17:52.514Z,12.12
2023-03-18T20:20:24.815Z,12.16
2023-03-18T20:23:01.099Z,12.19
2023-03-18T20:25:44.600Z,12.03
2023-03-18T20:28:17.238Z,11.82
2023-03-18T20:30:46.755Z,11.93
2023-03-18T20:33:14.265Z,12.05
2023-03-18T20:35:44.917Z,12.01
2023-03-18T20:38:39.046Z,11.99
2023-03-18T20:41:17.946Z,12.02
2023-03-18T20:43:47.908Z,11.94
2023-03-18T20:46:15.780Z,11.89
2023-03-18T20:48:43.836Z,11.92
2023-03-18T20:51:22.132Z,11.85
2023-03-18T20:53:50.324Z,11.87
2023-03-18T20:56:19.314Z,11.79
2023-03-18T20:58:46.321Z,11.83
2023-03-18T21:01:14.072Z,11.95
2023-03-18T21:03:42.072Z,12.02
2023-03-18T21:06:16.101Z,11.98
2023-03-18T21:08:43.540Z,11.83
2023-03-18T21:11:29.862Z,11.68
2023-03-18T21:13:56.927Z,11.66
2023-03-18T21:16:37.182Z,11.61
2023-03-18T21:19:04.688Z,11.65
2023-03-18T21:21:40.173Z,11.66
2023-03-18T21:24:26.849Z,11.69
2023-03-18T21:27:04.333Z,11.66
2023-03-18T21:29:33.510Z,11.64
2023-03-18T21:32:00.886Z,11.56
2023-03-18T21:34:27.814Z,11.51
2023-03-18T21:36:54.684Z,11.50
2023-03-18T21:39:24.855Z,11.46
2023-03-18T21:41:52.147Z,11.60
2023-03-18T21:44:19.204Z,11.60
2023-03-18T21:46:45.953Z,11.60
2023-03-18T21:49:12.721Z,11.56
2023-03-18T21:51:40.510Z,11.54
2023-03-18T21:54:18.356Z,11.55
2023-03-18T21:56:46.090Z,11.57
2023-03-18T21:59:12.841Z,11.63
2023-03-18T22:01:40.108Z,11.69
2023-03-18T22:04:07.417Z,11.58
2023-03-18T22:06:34.692Z,11.40
2023-03-18T22:09:02.781Z,11.37
2023-03-18T22:11:31.111Z,11.38
2023-03-18T22:13:58.045Z,11.39
2023-03-18T22:16:25.310Z,11.36
2023-03-18T22:18:52.883Z,11.34
2023-03-18T22:21:27.353Z,11.15
2023-03-18T22:23:55.532Z,11.06
2023-03-18T22:26:22.609Z,11.07
2023-03-18T22:28:50.917Z,11.04
2023-03-18T22:31:26.483Z,11.06
2023-03-18T22:33:54.910Z,11.07
2023-03-18T22:36:21.943Z,10.96
2023-03-18T22:38:49.880Z,11.04
2023-03-18T22:41:31.286Z,11.10
2023-03-18T22:43:59.986Z,11.09
2023-03-18T22:46:28.322Z,10.96
2023-03-18T22:48:55.860Z,11.03
2023-03-18T22:51:29.639Z,11.11
2023-03-18T22:53:56.832Z,11.03
2023-03-18T22:56:23.942Z,10.80
2023-03-18T22:58:51.825Z,10.82
2023-03-18T23:01:26.530Z,10.83
2023-03-18T23:03:55.456Z,10.85
2023-03-18T23:06:27.081Z,10.81
2023-03-18T23:08:54.207Z,10.82
2023-03-18T23:11:21.510Z,10.91
2023-03-18T23:13:50.882Z,10.87
2023-03-18T23:16:23.691Z,10.81
2023-03-18T23:18:51.529Z,10.76
2023-03-18T23:21:23.196Z,10.75
2023-03-18T23:23:52.337Z,10.78
2023-03-18T23:26:20.422Z,10.65
2023-03-18T23:28:48.945Z,10.68
2023-03-18T23:31:16.672Z,10.62
2023-03-18T23:33:44.893Z,10.50
2023-03-18T23:36:12.394Z,10.50
2023-03-18T23:38:40.021Z,10.42
2023-03-18T23:41:08.047Z,10.41
2023-03-18T23:43:35.183Z,10.50
2023-03-18T23:46:03.350Z,10.55
2023-03-18T23:48:31.504Z,10.59
2023-03-18T23:50:58.833Z,10.59
2023-03-18T23:53:26.131Z,10.59
2023-03-18T23:55:53.179Z,10.60
2023-03-18T23:58:20.120Z,10.61
